This is the latest recevied weather packets stored in our database for station/object N8QQQ. If no packets are shown the sender has not sent any weather packets the latest 10 day(s).
| Time | Temp. | Humidity | Pressure | Rain* | Wind** | Luminosity | Snow |
|---|---|---|---|---|---|---|---|
| 1778202425 | 3.89° C | 73% | 1009.5 hPa | 0 mm | - | 0 W/m² | - |
| 1778202124 | 4.44° C | 69% | 1009.5 hPa | 0 mm | - | 1 W/m² | - |
| 1778201821 | 4.44° C | 68% | 1009.7 hPa | 0 mm | - | 1 W/m² | - |
| 1778201517 | 5° C | 68% | 1009.3 hPa | 0 mm | - | 1 W/m² | - |
| 1778201213 | 6.11° C | 59% | 1008.9 hPa | 0 mm | - | 1 W/m² | - |
| 1778200909 | 6.67° C | 48% | 1008.7 hPa | 0 mm | - | 2 W/m² | - |
| 1778200605 | 6.67° C | 48% | 1008.6 hPa | 0 mm | - | 1 W/m² | - |
| 1778200303 | 6.67° C | 48% | 1008.2 hPa | 0 mm | - | 2 W/m² | - |
| 1778199999 | 6.67° C | 45% | 1008.4 hPa | 0 mm | - | 4 W/m² | - |
| 1778199698 | 6.67° C | 48% | 1008.1 hPa | 0 mm | - | 6 W/m² | - |
| 1778199392 | 6.67° C | 47% | 1008 hPa | 0 mm | - | 9 W/m² | - |
| 1778199089 | 6.67° C | 45% | 1008.2 hPa | 0 mm | - | 15 W/m² | - |
| 1778198785 | 7.22° C | 44% | 1008.1 hPa | 0 mm | - | 28 W/m² | - |
| 1778198482 | 7.22° C | 43% | 1008.1 hPa | 0 mm | - | 25 W/m² | - |
| 1778198178 | 7.22° C | 43% | 1007.9 hPa | 0 mm | - | 26 W/m² | - |
| 1778197871 | 7.22° C | 42% | 1007.9 hPa | 0 mm | - | 25 W/m² | - |
| 1778197567 | 7.22° C | 41% | 1007.9 hPa | 0 mm | - | 28 W/m² | - |
| 1778197263 | 7.22° C | 41% | 1007.8 hPa | 0 mm | - | 29 W/m² | - |
| 1778196960 | 7.78° C | 41% | 1007.7 hPa | 0 mm | - | 26 W/m² | - |
| 1778196659 | 7.78° C | 39% | 1007.9 hPa | 0 mm | - | 41 W/m² | - |
| 1778196354 | 7.78° C | 38% | 1007.9 hPa | 0 mm | - | 51 W/m² | - |
| 1778196053 | 7.78° C | 38% | 1007.9 hPa | 0 mm | - | 34 W/m² | - |
| 1778195748 | 7.78° C | 37% | 1007.9 hPa | 0 mm | - | 35 W/m² | - |
| 1778195446 | 8.33° C | 37% | 1008 hPa | 0 mm | - | 58 W/m² | - |
| 1778195142 | 8.89° C | 36% | 1007.9 hPa | 0 mm | - | 146 W/m² | - |
* Rain latest hour (hover to see other rain measurements)
** Current wind speed in m/s (hover to see current wind gust speed)